createdAt,value
2018-07-14T00:01:25.533Z,20.20
2018-07-14T00:02:25.553Z,20.09
2018-07-14T00:04:18.502Z,20.12
2018-07-14T00:05:18.499Z,20.08
2018-07-14T00:07:11.425Z,20.05
2018-07-14T00:08:11.444Z,20.05
2018-07-14T00:10:04.436Z,20.18
2018-07-14T00:11:04.387Z,20.20
2018-07-14T00:12:57.347Z,20.06
2018-07-14T00:13:57.340Z,20.06
2018-07-14T00:15:50.279Z,19.97
2018-07-14T00:16:50.294Z,20.05
2018-07-14T00:18:43.241Z,20.03
2018-07-14T00:19:43.235Z,19.90
2018-07-14T00:21:36.163Z,20.00
2018-07-14T00:22:36.176Z,19.95
2018-07-14T00:24:29.176Z,19.91
2018-07-14T00:25:29.130Z,19.94
2018-07-14T00:27:22.058Z,19.95
2018-07-14T00:28:22.074Z,19.94
2018-07-14T00:30:15.022Z,19.90
2018-07-14T00:31:15.018Z,19.95
2018-07-14T00:33:07.979Z,19.90
2018-07-14T00:34:07.974Z,19.90
2018-07-14T00:36:00.894Z,19.93
2018-07-14T00:37:00.911Z,19.87
2018-07-14T00:38:53.858Z,19.79
2018-07-14T00:39:53.855Z,19.75
2018-07-14T00:41:46.784Z,19.76
2018-07-14T00:42:46.803Z,19.68
2018-07-14T00:44:39.753Z,19.70
2018-07-14T00:45:39.750Z,19.58
2018-07-14T00:47:32.680Z,19.60
2018-07-14T00:48:32.698Z,19.58
2018-07-14T00:50:25.641Z,19.55
2018-07-14T00:51:25.648Z,19.53
2018-07-14T00:53:18.591Z,19.29
2018-07-14T00:54:18.584Z,19.38
2018-07-14T00:56:11.519Z,19.35
2018-07-14T00:57:11.532Z,19.36
2018-07-14T00:59:04.483Z,19.32
2018-07-14T01:00:04.478Z,19.31
2018-07-14T01:01:57.405Z,19.32
2018-07-14T01:02:57.420Z,19.36
2018-07-14T01:04:50.376Z,19.31
2018-07-14T01:05:50.372Z,19.24
2018-07-14T01:07:43.302Z,19.24
2018-07-14T01:08:43.312Z,19.21
2018-07-14T01:10:36.272Z,19.05
2018-07-14T01:11:36.266Z,19.06
2018-07-14T01:13:29.209Z,18.99
2018-07-14T01:14:29.206Z,18.99
2018-07-14T01:16:22.142Z,19.02
2018-07-14T01:17:22.159Z,18.90
2018-07-14T01:19:15.108Z,18.94
2018-07-14T01:20:15.103Z,18.99
2018-07-14T01:22:08.027Z,18.95
2018-07-14T01:23:08.049Z,18.95
2018-07-14T01:25:00.992Z,18.87
2018-07-14T01:26:00.991Z,18.91
2018-07-14T01:27:53.918Z,18.94
2018-07-14T01:28:53.931Z,18.97
2018-07-14T01:30:46.887Z,18.90
2018-07-14T01:31:46.880Z,18.94
2018-07-14T01:33:39.834Z,18.91
2018-07-14T01:34:39.830Z,18.95
2018-07-14T01:36:32.762Z,18.97
2018-07-14T01:37:32.771Z,18.97
2018-07-14T01:39:25.729Z,18.98
2018-07-14T01:40:25.726Z,18.95
2018-07-14T01:42:18.648Z,18.91
2018-07-14T01:43:18.666Z,18.80
2018-07-14T01:45:11.611Z,18.90
2018-07-14T01:46:11.607Z,18.80
2018-07-14T01:48:04.538Z,18.84
2018-07-14T01:49:04.551Z,18.84
2018-07-14T01:50:57.503Z,18.73
2018-07-14T01:51:57.491Z,18.76
2018-07-14T01:53:50.439Z,18.73
2018-07-14T01:54:50.436Z,18.67
2018-07-14T02:24:24.073Z,18.19
2018-07-14T02:25:24.059Z,18.22
2018-07-14T02:27:16.979Z,18.19
2018-07-14T02:28:16.989Z,18.19
2018-07-14T02:30:09.945Z,18.10
2018-07-14T02:31:09.919Z,18.06
2018-07-14T02:33:02.838Z,18.10
2018-07-14T02:34:02.850Z,18.00
2018-07-14T02:35:55.800Z,18.06
2018-07-14T02:36:55.789Z,17.99
2018-07-14T02:38:48.741Z,18.00
2018-07-14T02:39:48.726Z,17.99
2018-07-14T02:41:41.644Z,18.00
2018-07-14T02:42:41.673Z,17.97
2018-07-14T02:44:34.603Z,17.95
2018-07-14T02:45:34.600Z,17.88
2018-07-14T02:47:27.526Z,17.88
2018-07-14T02:48:27.538Z,17.79
2018-07-14T02:50:20.482Z,17.73
2018-07-14T02:51:20.477Z,17.81
2018-07-14T02:53:13.407Z,17.73
2018-07-14T02:54:13.418Z,17.74
2018-07-14T02:56:06.364Z,17.82
2018-07-14T02:57:06.356Z,17.81
2018-07-14T02:58:59.307Z,17.79
2018-07-14T02:59:59.302Z,17.81
2018-07-14T03:01:52.226Z,17.82
2018-07-14T03:02:52.242Z,17.79
2018-07-14T03:04:45.193Z,17.84
2018-07-14T03:05:45.185Z,17.79
2018-07-14T03:07:38.121Z,17.85
2018-07-14T03:08:38.129Z,17.73
2018-07-14T03:10:31.076Z,17.76
2018-07-14T03:11:31.074Z,17.73
2018-07-14T03:13:23.995Z,17.74
2018-07-14T03:14:24.012Z,17.74
2018-07-14T03:16:16.961Z,17.69
2018-07-14T03:17:16.957Z,17.74
2018-07-14T03:19:09.904Z,17.64
2018-07-14T03:20:09.903Z,17.57
2018-07-14T03:22:02.825Z,17.57
2018-07-14T03:23:02.843Z,17.54
2018-07-14T03:24:55.796Z,17.63
2018-07-14T03:25:55.792Z,17.57
2018-07-14T03:27:49.220Z,17.48
2018-07-14T03:28:49.231Z,17.43
2018-07-14T03:30:42.176Z,17.46
2018-07-14T03:31:42.168Z,17.62
2018-07-14T03:33:35.099Z,17.51
2018-07-14T03:34:35.112Z,17.55
2018-07-14T03:36:28.055Z,17.43
2018-07-14T03:37:28.053Z,17.43
2018-07-14T03:39:20.994Z,17.51
2018-07-14T03:40:20.994Z,17.47
2018-07-14T03:42:13.923Z,17.48
2018-07-14T03:43:13.936Z,17.46
2018-07-14T03:45:06.889Z,17.40
2018-07-14T03:46:06.887Z,17.44
2018-07-14T03:47:59.806Z,17.43
2018-07-14T03:48:59.822Z,17.47
2018-07-14T03:50:52.769Z,17.38
2018-07-14T03:51:52.761Z,17.51
2018-07-14T03:53:45.688Z,17.41
2018-07-14T03:54:45.701Z,17.36
2018-07-14T03:56:38.649Z,17.38
2018-07-14T03:57:38.646Z,17.47
2018-07-14T03:59:31.604Z,17.44
2018-07-14T04:00:31.588Z,17.46
2018-07-14T04:02:24.510Z,17.50
2018-07-14T04:03:24.526Z,17.51
2018-07-14T04:05:17.473Z,17.44
2018-07-14T04:06:17.468Z,17.44
2018-07-14T04:08:10.394Z,17.47
2018-07-14T04:09:10.412Z,17.44
2018-07-14T04:11:03.360Z,17.66
2018-07-14T04:12:03.355Z,17.46
2018-07-14T04:13:56.282Z,17.53
2018-07-14T04:14:56.298Z,17.59
2018-07-14T04:16:49.254Z,17.57
2018-07-14T04:17:49.246Z,17.62
2018-07-14T04:19:42.199Z,17.57
2018-07-14T04:20:42.189Z,17.59
2018-07-14T04:22:35.112Z,17.54
2018-07-14T04:23:35.126Z,17.59
2018-07-14T04:25:28.078Z,17.67
2018-07-14T04:26:28.073Z,17.78
2018-07-14T04:28:20.998Z,17.70
2018-07-14T04:29:21.010Z,17.67
2018-07-14T04:31:13.961Z,17.74
2018-07-14T04:32:13.958Z,17.84
2018-07-14T04:34:06.883Z,17.76
2018-07-14T04:35:06.907Z,17.81
2018-07-14T04:36:59.853Z,17.82
2018-07-14T04:37:59.851Z,17.82
2018-07-14T04:39:52.802Z,17.88
2018-07-14T04:40:52.792Z,17.92
2018-07-14T04:42:45.743Z,17.92
2018-07-14T04:43:45.750Z,17.94
2018-07-14T04:45:38.689Z,17.95
2018-07-14T04:46:38.684Z,17.87
2018-07-14T04:48:31.618Z,18.00
2018-07-14T04:49:31.630Z,17.99
2018-07-14T04:51:24.575Z,17.89
2018-07-14T04:52:24.571Z,17.91
2018-07-14T04:54:17.503Z,17.95
2018-07-14T04:55:17.516Z,17.89
2018-07-14T04:57:10.495Z,17.95
2018-07-14T04:58:10.491Z,18.06
2018-07-14T05:00:03.420Z,18.17
2018-07-14T05:01:03.436Z,18.00
2018-07-14T05:02:56.382Z,17.91
2018-07-14T05:03:56.381Z,17.88
2018-07-14T05:05:49.333Z,17.91
2018-07-14T05:06:49.328Z,17.88
2018-07-14T05:08:42.256Z,17.79
2018-07-14T05:09:42.269Z,17.79
2018-07-14T05:11:35.216Z,17.64
2018-07-14T05:12:35.212Z,17.59
2018-07-14T05:14:28.141Z,17.46
2018-07-14T05:15:28.158Z,17.59
2018-07-14T05:17:21.108Z,17.63
2018-07-14T05:18:21.104Z,17.71
2018-07-14T05:20:14.055Z,17.82
2018-07-14T05:21:14.058Z,17.76
2018-07-14T05:23:06.996Z,17.97
2018-07-14T05:24:06.990Z,17.89
2018-07-14T05:25:59.934Z,18.04
2018-07-14T05:26:59.932Z,18.03
2018-07-14T05:28:52.861Z,18.10
2018-07-14T05:29:52.878Z,18.19
2018-07-14T05:31:45.828Z,18.33
2018-07-14T05:32:45.823Z,18.58
2018-07-14T05:34:38.752Z,19.46
2018-07-14T05:35:38.768Z,20.42
2018-07-14T05:37:31.721Z,22.12
2018-07-14T05:38:31.715Z,22.84
2018-07-14T05:40:24.646Z,23.86
2018-07-14T05:41:24.661Z,24.59
2018-07-14T05:43:17.611Z,25.32
2018-07-14T05:44:17.608Z,25.56
2018-07-14T05:46:10.558Z,26.15
2018-07-14T05:47:10.559Z,25.82
2018-07-14T05:49:03.493Z,24.88
2018-07-14T05:50:03.512Z,24.87
2018-07-14T05:51:56.485Z,25.05
2018-07-14T05:52:56.466Z,25.09
2018-07-14T05:54:49.409Z,25.06
2018-07-14T05:55:49.426Z,24.76
2018-07-14T05:57:42.378Z,24.49
2018-07-14T05:58:42.380Z,24.29
2018-07-14T06:00:35.321Z,25.24
2018-07-14T06:01:35.339Z,25.77
2018-07-14T06:03:28.300Z,26.57
2018-07-14T06:04:28.298Z,26.87
2018-07-14T06:06:21.260Z,27.20
2018-07-14T06:07:21.260Z,27.35
2018-07-14T06:09:14.210Z,27.88
2018-07-14T06:10:14.228Z,27.82
2018-07-14T06:12:07.187Z,27.99
2018-07-14T06:13:07.192Z,28.28
2018-07-14T06:15:00.128Z,27.26
2018-07-14T06:16:00.151Z,27.61
2018-07-14T06:17:53.115Z,28.04
2018-07-14T06:18:53.116Z,28.06
2018-07-14T06:20:46.053Z,28.72
2018-07-14T06:21:46.077Z,28.77
2018-07-14T06:23:39.034Z,29.34
2018-07-14T06:24:39.035Z,29.35
2018-07-14T06:26:31.998Z,29.57
2018-07-14T06:27:32.006Z,29.13
2018-07-14T06:29:24.942Z,28.82
2018-07-14T06:30:24.965Z,28.78
2018-07-14T06:32:17.933Z,28.91
2018-07-14T06:33:17.940Z,28.91
2018-07-14T06:35:10.880Z,29.35
2018-07-14T06:36:10.905Z,29.20
2018-07-14T06:38:03.872Z,29.68
2018-07-14T06:39:03.875Z,29.45
2018-07-14T06:40:56.826Z,29.41
2018-07-14T06:41:56.852Z,29.33
2018-07-14T06:43:49.813Z,29.26
2018-07-14T06:44:49.835Z,29.37
2018-07-14T06:46:42.789Z,29.57
2018-07-14T06:47:42.791Z,29.70
2018-07-14T06:49:35.743Z,29.55
2018-07-14T06:50:35.764Z,29.70
2018-07-14T06:52:28.733Z,29.40
2018-07-14T06:53:28.736Z,29.40
2018-07-14T06:55:21.681Z,29.22
2018-07-14T06:56:21.705Z,29.23
2018-07-14T06:58:14.670Z,29.52
2018-07-14T06:59:14.670Z,29.68
2018-07-14T07:01:07.616Z,29.37
2018-07-14T07:02:07.646Z,29.47
2018-07-14T07:04:00.614Z,29.26
2018-07-14T07:05:00.623Z,29.33
2018-07-14T07:06:53.584Z,29.89
2018-07-14T07:07:53.587Z,30.11
2018-07-14T07:09:46.536Z,30.31
2018-07-14T07:10:46.560Z,30.46
2018-07-14T07:12:39.522Z,30.45
2018-07-14T07:13:39.594Z,30.40
2018-07-14T07:15:32.478Z,30.27
2018-07-14T07:16:32.504Z,30.36
2018-07-14T07:18:25.473Z,30.49
2018-07-14T07:19:25.472Z,30.36
2018-07-14T07:21:18.469Z,30.07
2018-07-14T07:22:18.450Z,30.36
2018-07-14T07:24:11.422Z,30.23
2018-07-14T07:25:11.426Z,29.77
2018-07-14T07:27:04.389Z,29.31
2018-07-14T07:28:04.391Z,29.29
2018-07-14T07:29:57.342Z,29.66
2018-07-14T07:30:57.365Z,29.35
2018-07-14T07:32:50.337Z,29.50
2018-07-14T07:33:50.335Z,29.66
2018-07-14T07:35:43.281Z,29.56
2018-07-14T07:36:43.308Z,29.84
2018-07-14T07:38:36.270Z,30.14
2018-07-14T07:39:36.277Z,29.87
2018-07-14T07:41:29.223Z,29.79
2018-07-14T07:42:29.374Z,29.70
2018-07-14T07:44:22.218Z,29.81
2018-07-14T07:45:22.223Z,29.84
2018-07-14T07:47:15.190Z,30.09
2018-07-14T07:48:15.193Z,30.27
2018-07-14T07:50:08.141Z,30.07
2018-07-14T07:51:08.162Z,30.18
2018-07-14T07:53:01.135Z,29.90
2018-07-14T07:54:01.140Z,30.15
2018-07-14T07:55:54.082Z,30.14
2018-07-14T07:56:54.106Z,29.92
2018-07-14T07:58:47.069Z,29.50
2018-07-14T07:59:47.077Z,29.33
2018-07-14T08:01:40.022Z,29.49
2018-07-14T08:02:40.044Z,29.08
2018-07-14T08:04:33.010Z,29.01
2018-07-14T08:05:33.014Z,29.07
2018-07-14T08:07:25.982Z,29.34
2018-07-14T08:08:25.986Z,29.56
2018-07-14T08:10:18.934Z,29.10
2018-07-14T08:11:18.955Z,28.53
2018-07-14T08:13:11.918Z,28.70
2018-07-14T08:14:11.924Z,28.77
2018-07-14T08:16:04.879Z,29.08
2018-07-14T08:17:04.899Z,29.28
2018-07-14T08:18:57.861Z,29.33
2018-07-14T08:19:57.858Z,29.34
2018-07-14T08:21:50.805Z,29.04
2018-07-14T08:22:50.848Z,28.90
2018-07-14T08:24:43.792Z,28.90
2018-07-14T08:25:43.793Z,28.75
2018-07-14T08:27:36.757Z,27.95
2018-07-14T08:28:36.762Z,28.09
2018-07-14T08:30:29.708Z,28.01
2018-07-14T08:31:29.726Z,27.73
2018-07-14T08:33:22.689Z,27.61
2018-07-14T08:34:22.702Z,27.19
2018-07-14T08:36:15.642Z,27.04
2018-07-14T08:37:15.664Z,27.13
2018-07-14T08:39:08.634Z,27.29
2018-07-14T08:40:08.635Z,27.20
2018-07-14T08:42:01.572Z,27.46
2018-07-14T08:43:01.597Z,27.62
2018-07-14T08:44:54.558Z,27.74
2018-07-14T08:45:54.563Z,26.98
2018-07-14T08:47:47.525Z,27.17
2018-07-14T08:48:47.530Z,27.13
2018-07-14T08:50:40.469Z,27.43
2018-07-14T08:51:40.492Z,27.64
2018-07-14T08:53:33.448Z,27.77
2018-07-14T08:54:33.449Z,27.70
2018-07-14T08:56:26.391Z,27.92
2018-07-14T08:57:26.420Z,28.01
2018-07-14T08:59:19.370Z,27.74
2018-07-14T09:00:19.370Z,27.86
2018-07-14T09:02:12.310Z,28.10
2018-07-14T09:03:12.332Z,27.89
2018-07-14T09:05:05.290Z,27.14
2018-07-14T09:06:05.293Z,27.17
2018-07-14T09:07:58.251Z,27.38
2018-07-14T09:08:58.251Z,27.64
2018-07-14T09:10:51.190Z,27.82
2018-07-14T09:11:51.211Z,27.76
2018-07-14T09:13:44.170Z,27.86
2018-07-14T09:14:44.170Z,28.06
2018-07-14T09:16:37.110Z,28.19
2018-07-14T09:17:37.132Z,28.16
2018-07-14T09:19:30.093Z,27.74
2018-07-14T09:20:30.096Z,27.85
2018-07-14T09:22:23.043Z,27.94
2018-07-14T09:23:23.066Z,28.03
2018-07-14T09:25:16.022Z,27.13
2018-07-14T09:26:16.028Z,27.09
2018-07-14T09:28:09.001Z,27.01
2018-07-14T09:29:08.983Z,27.05
2018-07-14T09:31:01.919Z,27.04
2018-07-14T09:32:01.939Z,27.13
2018-07-14T09:33:54.900Z,27.36
2018-07-14T09:34:54.900Z,27.57
2018-07-14T09:36:47.842Z,27.53
2018-07-14T09:37:47.863Z,27.67
2018-07-14T09:39:40.818Z,27.62
2018-07-14T09:40:40.822Z,27.69
2018-07-14T09:42:33.771Z,27.69
2018-07-14T09:43:33.796Z,27.48
2018-07-14T09:45:26.740Z,27.64
2018-07-14T09:46:26.746Z,27.69
2018-07-14T09:48:19.696Z,27.31
2018-07-14T09:49:19.716Z,27.42
2018-07-14T09:51:12.639Z,27.42
2018-07-14T09:52:12.663Z,27.69
2018-07-14T09:54:05.608Z,27.57
2018-07-14T09:55:05.662Z,27.23
2018-07-14T09:56:58.554Z,27.32
2018-07-14T09:57:58.574Z,27.43
2018-07-14T09:59:51.531Z,27.54
2018-07-14T10:00:51.530Z,27.46
2018-07-14T10:02:44.467Z,27.20
2018-07-14T10:03:44.486Z,27.24
2018-07-14T10:05:37.447Z,27.51
2018-07-14T10:06:37.448Z,27.66
2018-07-14T10:08:30.407Z,27.89
2018-07-14T10:09:30.405Z,27.94
2018-07-14T10:11:23.342Z,27.66
2018-07-14T10:12:23.362Z,27.66
2018-07-14T10:14:16.316Z,27.71
2018-07-14T10:15:16.316Z,27.61
2018-07-14T10:17:09.262Z,27.73
2018-07-14T10:18:09.280Z,27.67
2018-07-14T10:20:02.237Z,27.67
2018-07-14T10:21:02.239Z,27.69
2018-07-14T10:22:55.175Z,27.84
2018-07-14T10:23:55.196Z,27.59
2018-07-14T10:25:48.239Z,27.31
2018-07-14T10:26:48.154Z,27.20
2018-07-14T10:28:41.116Z,27.36
2018-07-14T10:29:41.114Z,27.43
2018-07-14T10:31:34.049Z,27.67
2018-07-14T10:32:34.069Z,27.76
2018-07-14T10:34:27.030Z,27.82
2018-07-14T10:35:27.032Z,27.66
2018-07-14T10:37:19.968Z,27.43
2018-07-14T10:38:19.996Z,27.14
2018-07-14T10:40:12.948Z,27.23
2018-07-14T10:41:12.945Z,27.16
2018-07-14T10:43:05.899Z,27.35
2018-07-14T10:44:05.910Z,27.38
2018-07-14T10:45:58.865Z,27.64
2018-07-14T10:46:58.862Z,27.57
2018-07-14T10:48:51.826Z,27.66
2018-07-14T10:49:51.823Z,27.74
2018-07-14T10:51:44.761Z,27.67
2018-07-14T10:52:44.779Z,27.73
2018-07-14T10:54:37.741Z,27.73
2018-07-14T10:55:37.738Z,27.85
2018-07-14T10:57:30.695Z,27.71
2018-07-14T10:58:30.722Z,27.76
2018-07-14T11:00:23.674Z,27.51
2018-07-14T11:01:23.658Z,27.42
2018-07-14T11:03:16.606Z,27.67
2018-07-14T11:04:16.624Z,27.80
2018-07-14T11:06:09.573Z,27.91
2018-07-14T11:07:09.575Z,28.04
2018-07-14T11:09:02.532Z,28.35
2018-07-14T11:10:02.536Z,28.41
2018-07-14T11:11:55.475Z,28.41
2018-07-14T11:12:55.497Z,28.59
2018-07-14T11:14:48.454Z,28.65
2018-07-14T11:15:48.455Z,28.68
2018-07-14T11:17:41.442Z,28.68
2018-07-14T11:18:41.412Z,28.60
2018-07-14T11:20:34.365Z,28.56
2018-07-14T11:21:34.368Z,28.65
2018-07-14T11:23:27.303Z,28.80
2018-07-14T11:24:27.324Z,28.72
2018-07-14T11:26:20.285Z,28.70
2018-07-14T11:27:20.286Z,28.62
2018-07-14T11:29:13.252Z,28.62
2018-07-14T11:30:13.302Z,28.68
2018-07-14T11:32:06.190Z,28.90
2018-07-14T11:33:06.209Z,28.90
2018-07-14T11:34:59.179Z,28.93
2018-07-14T11:35:59.177Z,28.73
2018-07-14T11:37:52.123Z,28.82
2018-07-14T11:38:52.143Z,28.69
2018-07-14T11:40:45.099Z,28.77
2018-07-14T11:41:45.097Z,28.72
2018-07-14T11:43:38.037Z,28.81
2018-07-14T11:44:38.065Z,28.84
2018-07-14T11:46:31.019Z,28.95
2018-07-14T11:47:31.076Z,28.96
2018-07-14T11:49:23.976Z,28.93
2018-07-14T11:50:23.981Z,28.80
2018-07-14T11:52:16.913Z,28.68
2018-07-14T11:53:16.937Z,28.54
2018-07-14T11:55:09.897Z,28.77
2018-07-14T11:56:09.897Z,28.72
2018-07-14T11:58:02.832Z,28.63
2018-07-14T11:59:02.854Z,28.36
2018-07-14T12:00:55.822Z,28.36
2018-07-14T12:01:55.886Z,28.19
2018-07-14T12:03:48.758Z,27.86
2018-07-14T12:04:48.782Z,27.50
2018-07-14T12:06:41.747Z,27.95
2018-07-14T12:07:41.745Z,28.10
2018-07-14T12:09:34.699Z,28.38
2018-07-14T12:10:34.703Z,28.48
2018-07-14T12:12:27.647Z,28.53
2018-07-14T12:13:27.720Z,28.78
2018-07-14T12:15:20.625Z,28.97
2018-07-14T12:16:20.631Z,29.03
2018-07-14T12:18:13.566Z,29.03
2018-07-14T12:19:13.589Z,29.00
2018-07-14T12:21:06.547Z,29.07
2018-07-14T12:22:06.547Z,28.97
2018-07-14T12:23:59.486Z,29.07
2018-07-14T12:24:59.505Z,29.07
2018-07-14T12:26:52.470Z,29.00
2018-07-14T12:27:52.488Z,29.13
2018-07-14T12:29:45.425Z,29.34
2018-07-14T12:30:45.427Z,29.34
2018-07-14T12:32:38.365Z,29.34
2018-07-14T12:33:38.385Z,29.55
2018-07-14T12:35:31.347Z,29.55
2018-07-14T12:36:31.381Z,29.53
2018-07-14T12:38:24.286Z,29.71
2018-07-14T12:39:24.307Z,29.70
2018-07-14T12:41:17.264Z,29.90
2018-07-14T12:42:17.264Z,29.99
2018-07-14T12:44:10.204Z,30.19
2018-07-14T12:45:10.224Z,30.15
2018-07-14T12:47:03.188Z,29.96
2018-07-14T12:48:03.186Z,30.05
2018-07-14T12:49:56.145Z,29.71
2018-07-14T12:50:56.149Z,29.34
2018-07-14T12:52:49.097Z,29.33
2018-07-14T12:53:49.125Z,29.26
2018-07-14T12:55:42.072Z,29.38
2018-07-14T12:56:42.073Z,29.55
2018-07-14T12:58:35.014Z,29.77
2018-07-14T12:59:35.037Z,29.78
2018-07-14T13:01:27.995Z,29.43
2018-07-14T13:02:27.998Z,29.55
2018-07-14T13:04:20.948Z,29.38
2018-07-14T13:05:20.962Z,29.34
2018-07-14T13:07:13.923Z,29.33
2018-07-14T13:08:13.922Z,29.16
2018-07-14T13:10:06.895Z,29.18
2018-07-14T13:11:06.883Z,29.33
2018-07-14T13:12:59.823Z,29.00
2018-07-14T13:13:59.846Z,29.26
2018-07-14T13:15:52.806Z,29.25
2018-07-14T13:16:52.804Z,29.34
2018-07-14T13:18:45.744Z,29.31
2018-07-14T13:19:45.764Z,29.31
2018-07-14T13:21:38.729Z,29.38
2018-07-14T13:22:38.726Z,29.23
2018-07-14T13:24:31.668Z,29.38
2018-07-14T13:25:31.690Z,29.29
2018-07-14T13:27:24.657Z,29.20
2018-07-14T13:28:24.655Z,29.22
2018-07-14T13:30:17.695Z,29.19
2018-07-14T13:31:17.614Z,29.23
2018-07-14T13:33:10.556Z,29.04
2018-07-14T13:34:10.580Z,29.10
2018-07-14T13:36:03.536Z,29.22
2018-07-14T13:37:03.538Z,29.18
2018-07-14T13:38:56.569Z,28.84
2018-07-14T13:39:56.540Z,28.70
2018-07-14T13:41:49.500Z,28.90
2018-07-14T13:42:49.499Z,28.82
2018-07-14T13:44:42.436Z,28.81
2018-07-14T13:45:42.458Z,28.87
2018-07-14T13:47:35.420Z,29.01
2018-07-14T13:48:35.419Z,29.00
2018-07-14T13:50:28.381Z,29.13
2018-07-14T13:51:28.377Z,29.25
2018-07-14T13:53:21.317Z,29.25
2018-07-14T13:54:21.341Z,29.38
2018-07-14T13:56:14.296Z,29.23
2018-07-14T13:57:14.297Z,29.10
2018-07-14T13:59:07.236Z,28.85
2018-07-14T14:00:07.255Z,29.03
2018-07-14T14:02:00.212Z,29.15
2018-07-14T14:03:00.214Z,29.22
2018-07-14T14:04:53.151Z,29.25
2018-07-14T14:05:53.176Z,29.33
2018-07-14T14:07:46.136Z,29.33
2018-07-14T14:08:46.134Z,29.34
2018-07-14T14:10:39.096Z,29.45
2018-07-14T14:11:39.103Z,29.56
2018-07-14T14:13:32.038Z,29.59
2018-07-14T14:14:32.060Z,29.33
2018-07-14T14:16:25.017Z,29.35
2018-07-14T14:17:25.017Z,29.31
2018-07-14T14:19:17.961Z,29.29
2018-07-14T14:20:18.007Z,29.18
2018-07-14T14:22:10.938Z,29.26
2018-07-14T14:23:10.937Z,29.33
2018-07-14T14:25:04.388Z,29.28
2018-07-14T14:26:04.399Z,29.28
2018-07-14T14:27:57.358Z,29.37
2018-07-14T14:28:57.360Z,29.38
2018-07-14T14:30:50.320Z,29.25
2018-07-14T14:31:50.320Z,29.25
2018-07-14T14:33:43.261Z,29.16
2018-07-14T14:34:43.280Z,29.08
2018-07-14T14:36:36.238Z,29.11
2018-07-14T14:37:36.238Z,29.16
2018-07-14T14:39:29.184Z,28.70
2018-07-14T14:40:29.198Z,28.80
2018-07-14T14:42:22.167Z,28.60
2018-07-14T14:43:22.163Z,28.59
2018-07-14T14:45:15.103Z,28.68
2018-07-14T14:46:15.125Z,28.72
2018-07-14T14:48:08.079Z,28.81
2018-07-14T14:49:08.081Z,28.82
2018-07-14T14:51:01.043Z,28.73
2018-07-14T14:52:01.085Z,28.60
2018-07-14T14:53:53.979Z,28.69
2018-07-14T14:54:54.007Z,28.75
2018-07-14T14:56:46.958Z,28.95
2018-07-14T14:57:46.961Z,28.97
2018-07-14T14:59:39.903Z,29.06
2018-07-14T15:00:39.924Z,29.03
2018-07-14T15:02:32.886Z,29.00
2018-07-14T15:03:32.893Z,29.03
2018-07-14T15:05:25.849Z,29.16
2018-07-14T15:06:25.848Z,29.13
2018-07-14T15:08:18.806Z,29.16
2018-07-14T15:09:18.861Z,29.11
2018-07-14T15:11:11.772Z,28.88
2018-07-14T15:12:11.766Z,28.88
2018-07-14T15:14:04.707Z,28.91
2018-07-14T15:15:04.737Z,28.90
2018-07-14T15:16:57.686Z,28.85
2018-07-14T15:17:57.692Z,28.81
2018-07-14T15:19:50.628Z,28.90
2018-07-14T15:20:50.651Z,28.72
2018-07-14T15:22:43.606Z,28.77
2018-07-14T15:23:43.606Z,28.73
2018-07-14T15:25:36.548Z,28.77
2018-07-14T15:26:36.567Z,28.85
2018-07-14T15:28:29.526Z,28.77
2018-07-14T15:29:29.525Z,28.63
2018-07-14T15:31:22.487Z,28.59
2018-07-14T15:32:22.665Z,28.66
2018-07-14T15:34:15.428Z,28.75
2018-07-14T15:35:15.445Z,28.77
2018-07-14T15:37:08.412Z,28.68
2018-07-14T15:38:08.408Z,28.58
2018-07-14T15:40:01.347Z,28.48
2018-07-14T15:41:01.368Z,28.47
2018-07-14T15:42:54.329Z,28.47
2018-07-14T15:43:54.332Z,28.47
2018-07-14T15:45:47.274Z,28.43
2018-07-14T15:46:47.293Z,28.50
2018-07-14T15:48:40.254Z,28.43
2018-07-14T15:49:40.255Z,28.35
2018-07-14T15:51:33.210Z,28.40
2018-07-14T15:52:33.212Z,28.35
2018-07-14T15:54:26.149Z,28.53
2018-07-14T15:55:26.168Z,28.48
2018-07-14T15:57:19.128Z,28.50
2018-07-14T15:58:19.127Z,28.51
2018-07-14T16:00:12.179Z,28.51
2018-07-14T16:01:12.087Z,28.46
2018-07-14T16:03:05.046Z,28.43
2018-07-14T16:04:05.042Z,28.43
2018-07-14T16:05:57.982Z,28.25
2018-07-14T16:06:58.016Z,28.33
2018-07-14T16:08:50.960Z,28.16
2018-07-14T16:09:50.957Z,28.16
2018-07-14T16:11:43.916Z,28.23
2018-07-14T16:12:43.921Z,28.11
2018-07-14T16:14:36.853Z,28.22
2018-07-14T16:15:36.874Z,28.13
2018-07-14T16:17:29.832Z,28.04
2018-07-14T16:18:29.833Z,27.91
2018-07-14T16:20:22.782Z,27.94
2018-07-14T16:21:22.798Z,27.86
2018-07-14T16:23:15.751Z,27.85
2018-07-14T16:24:15.798Z,27.92
2018-07-14T16:26:08.695Z,28.07
2018-07-14T16:27:08.706Z,27.92
2018-07-14T16:29:01.668Z,27.88
2018-07-14T16:30:01.666Z,27.95
2018-07-14T16:31:54.625Z,27.89
2018-07-14T16:32:54.626Z,27.85
2018-07-14T16:34:47.564Z,27.89
2018-07-14T16:35:47.703Z,27.82
2018-07-14T16:37:40.541Z,27.71
2018-07-14T16:38:40.545Z,27.79
2018-07-14T16:40:33.480Z,27.82
2018-07-14T16:41:33.501Z,27.85
2018-07-14T16:43:26.457Z,27.70
2018-07-14T16:44:26.454Z,27.62
2018-07-14T16:46:19.398Z,27.62
2018-07-14T16:47:19.414Z,27.59
2018-07-14T16:49:12.370Z,27.64
2018-07-14T16:50:12.422Z,27.50
2018-07-14T16:52:05.335Z,27.42
2018-07-14T16:53:05.346Z,27.41
2018-07-14T16:54:58.270Z,27.33
2018-07-14T16:55:58.291Z,27.23
2018-07-14T16:57:51.272Z,27.17
2018-07-14T16:58:51.263Z,27.05
2018-07-14T17:00:44.210Z,27.11
2018-07-14T17:01:44.229Z,27.17
2018-07-14T17:03:37.180Z,27.06
2018-07-14T17:04:37.178Z,27.26
2018-07-14T17:06:30.114Z,27.14
2018-07-14T17:07:30.133Z,27.17
2018-07-14T17:09:23.088Z,27.21
2018-07-14T17:10:23.091Z,27.16
2018-07-14T17:12:16.044Z,26.96
2018-07-14T17:13:16.045Z,26.96
2018-07-14T17:15:08.982Z,27.04
2018-07-14T17:16:09.002Z,26.92
2018-07-14T17:18:01.954Z,26.87
2018-07-14T17:19:01.954Z,26.92
2018-07-14T17:20:54.910Z,26.83
2018-07-14T17:21:54.910Z,26.74
2018-07-14T17:23:47.878Z,26.77
2018-07-14T17:24:47.870Z,26.81
2018-07-14T17:26:40.807Z,26.76
2018-07-14T17:27:40.828Z,26.74
2018-07-14T17:29:33.781Z,26.76
2018-07-14T17:30:33.779Z,26.72
2018-07-14T17:32:26.735Z,26.73
2018-07-14T17:33:26.738Z,26.76
2018-07-14T17:35:19.678Z,26.73
2018-07-14T17:36:19.691Z,26.72
2018-07-14T17:38:12.650Z,26.79
2018-07-14T17:39:12.648Z,26.77
2018-07-14T17:41:05.585Z,26.61
2018-07-14T17:42:05.603Z,26.64
2018-07-14T17:43:58.627Z,26.59
2018-07-14T17:44:58.560Z,26.57
2018-07-14T17:46:51.505Z,26.57
2018-07-14T17:47:51.515Z,26.52
2018-07-14T17:49:44.467Z,26.46
2018-07-14T17:50:44.467Z,26.44
2018-07-14T17:52:37.425Z,26.43
2018-07-14T17:53:37.426Z,26.32
2018-07-14T17:55:30.365Z,26.37
2018-07-14T17:56:30.384Z,26.36
2018-07-14T17:58:23.341Z,26.28
2018-07-14T17:59:23.338Z,26.27
2018-07-14T18:01:16.274Z,26.31
2018-07-14T18:02:16.295Z,26.27
2018-07-14T18:04:09.253Z,26.28
2018-07-14T18:05:09.256Z,26.25
2018-07-14T18:07:02.188Z,26.35
2018-07-14T18:08:02.208Z,26.32
2018-07-14T18:09:55.164Z,26.11
2018-07-14T18:10:55.165Z,26.18
2018-07-14T18:12:48.114Z,26.04
2018-07-14T18:13:48.118Z,26.17
2018-07-14T18:15:41.051Z,26.08
2018-07-14T18:16:41.070Z,26.08
2018-07-14T18:18:34.025Z,26.05
2018-07-14T18:19:34.025Z,26.05
2018-07-14T18:21:26.958Z,25.97
2018-07-14T18:22:26.979Z,25.94
2018-07-14T18:24:19.940Z,25.86
2018-07-14T18:25:19.939Z,25.87
2018-07-14T18:27:12.870Z,25.84
2018-07-14T18:28:12.887Z,25.77
2018-07-14T18:30:05.842Z,25.72
2018-07-14T18:31:05.842Z,25.75
2018-07-14T18:32:58.801Z,25.67
2018-07-14T18:33:58.798Z,25.75
2018-07-14T18:35:51.730Z,25.62
2018-07-14T18:36:51.750Z,25.61
2018-07-14T18:38:44.708Z,25.52
2018-07-14T18:39:44.706Z,25.43
2018-07-14T18:41:37.644Z,25.35
2018-07-14T18:42:37.660Z,25.35
2018-07-14T18:44:30.611Z,25.28
2018-07-14T18:45:30.611Z,25.30
2018-07-14T18:47:23.546Z,25.25
2018-07-14T18:48:23.563Z,25.32
2018-07-14T18:50:16.519Z,25.31
2018-07-14T18:51:16.515Z,25.27
2018-07-14T18:53:09.476Z,25.16
2018-07-14T18:54:09.478Z,25.24
2018-07-14T18:56:02.417Z,25.15
2018-07-14T18:57:02.434Z,25.10
2018-07-14T18:58:55.400Z,25.15
2018-07-14T18:59:55.388Z,25.06
2018-07-14T19:01:48.319Z,25.15